createdAt,value
2019-02-27T00:01:30.315Z,8.90
2019-02-27T00:04:13.774Z,9.00
2019-02-27T00:06:56.206Z,9.00
2019-02-27T00:09:37.943Z,9.00
2019-02-27T00:12:20.026Z,8.90
2019-02-27T00:15:04.934Z,8.60
2019-02-27T00:17:45.582Z,8.40
2019-02-27T00:20:27.682Z,8.40
2019-02-27T00:23:09.622Z,8.20
2019-02-27T00:25:51.503Z,8.20
2019-02-27T00:28:33.821Z,8.10
2019-02-27T00:31:16.249Z,8.00
2019-02-27T00:33:59.838Z,8.00
2019-02-27T00:36:44.784Z,7.90
2019-02-27T00:39:25.914Z,7.80
2019-02-27T00:42:08.514Z,7.60
2019-02-27T00:44:38.794Z,7.40
2019-02-27T00:47:29.561Z,7.30
2019-02-27T00:50:12.976Z,7.10
2019-02-27T00:52:54.954Z,7.00
2019-02-27T00:55:39.366Z,6.90
2019-02-27T00:58:20.830Z,6.90
2019-02-27T01:01:03.063Z,6.80
2019-02-27T01:03:45.218Z,6.70
2019-02-27T01:06:27.122Z,6.50
2019-02-27T01:09:07.538Z,6.50
2019-02-27T01:11:56.897Z,6.40
2019-02-27T01:14:39.962Z,6.30
2019-02-27T01:17:23.826Z,6.30
2019-02-27T01:20:05.574Z,6.20
2019-02-27T01:22:47.842Z,6.20
2019-02-27T01:25:29.716Z,6.10
2019-02-27T01:28:11.678Z,6.00
2019-02-27T01:30:53.914Z,5.90
2019-02-27T01:33:38.230Z,5.80
2019-02-27T01:36:24.223Z,5.70
2019-02-27T01:39:03.752Z,5.60
2019-02-27T01:41:45.902Z,5.50
2019-02-27T01:44:27.828Z,5.40
2019-02-27T01:47:09.910Z,5.40
2019-02-27T01:49:52.414Z,5.40
2019-02-27T01:52:34.627Z,5.30
2019-02-27T01:55:17.050Z,5.20
2019-02-27T01:57:58.782Z,5.10
2019-02-27T02:00:40.414Z,5.10
2019-02-27T02:03:22.646Z,5.00
2019-02-27T02:06:04.906Z,5.00
2019-02-27T02:08:48.256Z,5.00
2019-02-27T02:11:32.749Z,4.90
2019-02-27T02:14:14.973Z,4.80
2019-02-27T02:16:56.827Z,4.70
2019-02-27T02:19:38.665Z,4.70
2019-02-27T02:22:20.411Z,4.60
2019-02-27T02:25:02.075Z,4.60
2019-02-27T02:31:33.510Z,4.60
2019-02-27T02:34:43.499Z,4.60
2019-02-27T02:37:27.100Z,4.60
2019-02-27T02:40:09.545Z,4.60
2019-02-27T02:42:52.171Z,4.60
2019-02-27T02:45:33.959Z,4.50
2019-02-27T02:48:16.359Z,4.60
2019-02-27T02:50:58.978Z,4.70
2019-02-27T02:53:40.902Z,4.70
2019-02-27T02:56:24.868Z,4.70
2019-02-27T02:59:06.372Z,4.90
2019-02-27T03:01:49.329Z,4.90
2019-02-27T03:04:32.070Z,5.00
2019-02-27T03:07:14.138Z,5.00
2019-02-27T03:09:56.375Z,4.90
2019-02-27T03:16:05.956Z,4.70
2019-02-27T03:18:49.135Z,4.50
2019-02-27T03:21:31.358Z,4.30
2019-02-27T03:24:13.047Z,4.30
2019-02-27T03:26:54.955Z,4.20
2019-02-27T03:29:37.008Z,4.10
2019-02-27T03:32:20.323Z,4.10
2019-02-27T03:35:29.443Z,4.10
2019-02-27T03:38:12.841Z,4.10
2019-02-27T03:40:54.461Z,4.20
2019-02-27T03:43:36.359Z,4.10
2019-02-27T03:46:18.681Z,4.10
2019-02-27T03:49:03.785Z,4.10
2019-02-27T03:51:43.919Z,4.20
2019-02-27T03:54:25.728Z,4.10
2019-02-27T03:57:07.595Z,4.10
2019-02-27T03:59:49.415Z,4.20
2019-02-27T04:05:58.672Z,4.20
2019-02-27T04:08:44.810Z,4.20
2019-02-27T04:11:25.935Z,4.10
2019-02-27T04:14:08.039Z,4.10
2019-02-27T04:19:31.460Z,4.30
2019-02-27T04:22:13.527Z,4.30
2019-02-27T04:24:56.920Z,4.20
2019-02-27T04:27:39.028Z,4.10
2019-02-27T04:30:21.022Z,4.00
2019-02-27T04:33:02.723Z,4.00
2019-02-27T04:35:44.514Z,4.20
2019-02-27T04:38:27.641Z,4.10
2019-02-27T04:41:10.068Z,4.00
2019-02-27T04:43:52.037Z,3.90
2019-02-27T04:46:34.038Z,3.90
2019-02-27T04:49:16.245Z,3.80
2019-02-27T04:51:58.024Z,3.80
2019-02-27T04:54:41.654Z,3.70
2019-02-27T04:57:24.126Z,3.80
2019-02-27T05:00:06.218Z,3.80
2019-02-27T05:02:50.460Z,3.70
2019-02-27T05:05:31.916Z,3.70
2019-02-27T05:08:14.053Z,3.80
2019-02-27T05:10:56.005Z,3.80
2019-02-27T05:13:38.474Z,3.80
2019-02-27T05:16:20.421Z,3.80
2019-02-27T05:19:04.072Z,3.80
2019-02-27T05:21:46.418Z,3.80
2019-02-27T05:24:28.646Z,3.80
2019-02-27T05:27:10.879Z,3.80
2019-02-27T05:29:53.092Z,3.80
2019-02-27T05:32:38.322Z,3.90
2019-02-27T05:35:23.585Z,4.00
2019-02-27T05:38:05.235Z,4.00
2019-02-27T05:40:47.583Z,4.00
2019-02-27T05:43:30.446Z,4.10
2019-02-27T05:46:12.542Z,4.20
2019-02-27T05:48:55.086Z,4.20
2019-02-27T05:51:36.808Z,4.20
2019-02-27T05:54:18.472Z,4.20
2019-02-27T05:57:00.127Z,4.20
2019-02-27T05:59:41.943Z,4.20
2019-02-27T06:02:25.513Z,4.30
2019-02-27T06:05:08.086Z,4.30
2019-02-27T06:07:50.390Z,4.50
2019-02-27T06:10:33.054Z,5.00
2019-02-27T06:13:15.258Z,5.60
2019-02-27T06:16:02.864Z,6.20
2019-02-27T06:18:41.506Z,6.70
2019-02-27T06:21:23.372Z,7.20
2019-02-27T06:24:05.767Z,7.60
2019-02-27T06:26:49.566Z,8.10
2019-02-27T06:29:31.954Z,8.50
2019-02-27T06:32:14.090Z,8.90
2019-02-27T06:34:59.109Z,9.00
2019-02-27T06:37:39.477Z,9.40
2019-02-27T06:40:21.297Z,9.90
2019-02-27T06:43:03.672Z,10.20
2019-02-27T06:45:46.625Z,10.60
2019-02-27T06:48:29.325Z,10.80
2019-02-27T06:51:11.647Z,11.00
2019-02-27T06:53:53.444Z,11.40
2019-02-27T06:56:35.858Z,11.80
2019-02-27T06:59:18.249Z,12.10
2019-02-27T07:02:00.288Z,12.30
2019-02-27T07:04:42.266Z,12.40
2019-02-27T07:07:23.996Z,12.70
2019-02-27T07:10:05.889Z,12.80
2019-02-27T07:12:48.099Z,13.00
2019-02-27T07:15:29.850Z,13.10
2019-02-27T07:18:12.331Z,12.80
2019-02-27T07:20:55.635Z,12.90
2019-02-27T07:23:38.567Z,13.00
2019-02-27T07:26:20.802Z,13.30
2019-02-27T07:29:02.927Z,13.30
2019-02-27T07:31:33.294Z,13.50
2019-02-27T07:34:24.070Z,13.50
2019-02-27T07:37:10.448Z,13.60
2019-02-27T07:39:39.998Z,13.90
2019-02-27T07:42:31.906Z,14.20
2019-02-27T07:48:01.974Z,14.70
2019-02-27T07:50:51.342Z,15.00
2019-02-27T07:53:33.805Z,15.30
2019-02-27T07:56:15.923Z,15.60
2019-02-27T07:58:57.898Z,16.00
2019-02-27T08:01:43.756Z,16.40
2019-02-27T08:04:23.462Z,16.60
2019-02-27T08:09:47.627Z,17.00
2019-02-27T08:12:29.854Z,17.30
2019-02-27T08:15:13.533Z,17.50
2019-02-27T08:17:57.885Z,17.80
2019-02-27T08:20:38.950Z,17.90
2019-02-27T08:23:20.646Z,18.40
2019-02-27T08:26:04.784Z,18.50
2019-02-27T08:28:46.183Z,18.60
2019-02-27T08:31:28.885Z,18.60
2019-02-27T08:34:10.763Z,18.50
2019-02-27T08:36:53.322Z,18.60
2019-02-27T08:39:34.998Z,18.80
2019-02-27T08:42:16.923Z,18.60
2019-02-27T08:44:58.923Z,18.90
2019-02-27T08:47:43.187Z,19.10
2019-02-27T08:50:24.170Z,18.90
2019-02-27T08:53:06.550Z,19.00
2019-02-27T08:55:48.746Z,19.00
2019-02-27T08:58:32.893Z,18.90
2019-02-27T09:01:14.262Z,18.90
2019-02-27T09:03:56.515Z,18.90
2019-02-27T09:06:38.515Z,18.90
2019-02-27T09:09:20.629Z,18.80
2019-02-27T09:12:03.169Z,18.80
2019-02-27T09:14:45.737Z,18.30
2019-02-27T09:17:27.924Z,17.70
2019-02-27T09:20:09.534Z,17.10
2019-02-27T09:22:51.647Z,16.70
2019-02-27T09:25:33.470Z,16.50
2019-02-27T09:28:15.492Z,16.40
2019-02-27T09:30:57.407Z,16.40
2019-02-27T09:33:39.608Z,16.30
2019-02-27T09:36:21.578Z,16.20
2019-02-27T09:39:04.347Z,16.10
2019-02-27T09:41:47.070Z,15.90
2019-02-27T09:44:29.610Z,15.70
2019-02-27T09:47:11.508Z,15.50
2019-02-27T09:49:52.258Z,15.40
2019-02-27T09:52:41.594Z,15.30
2019-02-27T09:55:24.698Z,15.30
2019-02-27T09:58:10.065Z,15.30
2019-02-27T10:00:50.253Z,15.40
2019-02-27T10:03:32.946Z,15.30
2019-02-27T10:06:13.380Z,15.40
2019-02-27T10:09:02.790Z,15.10
2019-02-27T10:11:46.547Z,14.90
2019-02-27T10:14:28.863Z,14.80
2019-02-27T10:17:11.017Z,14.70
2019-02-27T10:19:53.059Z,14.80
2019-02-27T10:22:35.067Z,14.70
2019-02-27T10:25:16.682Z,14.80
2019-02-27T10:28:03.285Z,14.90
2019-02-27T10:30:42.286Z,15.00
2019-02-27T10:33:25.835Z,15.00
2019-02-27T10:36:08.083Z,15.20
2019-02-27T10:38:50.212Z,15.40
2019-02-27T10:41:32.746Z,15.30
2019-02-27T10:44:15.366Z,15.40
2019-02-27T10:47:00.046Z,15.50
2019-02-27T10:49:40.946Z,15.40
2019-02-27T10:52:24.283Z,15.20
2019-02-27T10:55:04.743Z,15.20
2019-02-27T10:57:54.138Z,15.20
2019-02-27T11:00:38.014Z,15.10
2019-02-27T11:03:19.982Z,15.10
2019-02-27T11:06:01.906Z,15.10
2019-02-27T11:08:43.985Z,15.10
2019-02-27T11:11:26.311Z,14.90
2019-02-27T11:14:08.210Z,14.90
2019-02-27T11:16:50.403Z,14.70
2019-02-27T11:19:34.815Z,14.60
2019-02-27T11:22:16.374Z,14.70
2019-02-27T11:24:58.451Z,14.80
2019-02-27T11:27:40.670Z,14.80
2019-02-27T11:30:22.779Z,14.90
2019-02-27T11:33:05.169Z,15.10
2019-02-27T11:35:47.155Z,15.10
2019-02-27T11:38:29.167Z,15.00
2019-02-27T11:41:14.972Z,15.10
2019-02-27T11:43:54.931Z,15.10
2019-02-27T11:46:38.226Z,15.10
2019-02-27T11:49:20.938Z,15.20
2019-02-27T11:52:02.603Z,15.30
2019-02-27T11:54:45.131Z,15.20
2019-02-27T11:57:27.403Z,15.20
2019-02-27T12:00:13.607Z,15.20
2019-02-27T12:02:55.415Z,15.30
2019-02-27T12:05:37.408Z,15.30
2019-02-27T12:08:19.434Z,15.40
2019-02-27T12:11:01.359Z,15.50
2019-02-27T12:13:43.358Z,15.60
2019-02-27T12:16:25.399Z,15.80
2019-02-27T12:19:08.709Z,15.90
2019-02-27T12:21:51.426Z,16.00
2019-02-27T12:24:33.728Z,16.20
2019-02-27T12:27:25.730Z,16.20
2019-02-27T12:30:03.031Z,16.20
2019-02-27T12:32:44.085Z,16.20
2019-02-27T12:35:25.588Z,16.30
2019-02-27T12:38:14.981Z,16.40
2019-02-27T12:40:59.096Z,16.40
2019-02-27T12:43:40.803Z,16.40
2019-02-27T12:46:23.080Z,16.30
2019-02-27T12:49:05.170Z,16.20
2019-02-27T12:51:47.350Z,16.10
2019-02-27T12:54:29.494Z,16.00
2019-02-27T12:57:12.026Z,16.10
2019-02-27T12:59:53.731Z,16.20
2019-02-27T13:02:36.041Z,16.10
2019-02-27T13:05:18.378Z,16.10
2019-02-27T13:08:00.154Z,16.00
2019-02-27T13:10:42.795Z,15.90
2019-02-27T13:13:25.942Z,15.80
2019-02-27T13:16:07.867Z,15.70
2019-02-27T13:18:50.343Z,15.70
2019-02-27T13:21:32.223Z,15.70
2019-02-27T13:24:15.408Z,15.70
2019-02-27T13:26:57.776Z,15.70
2019-02-27T13:29:40.270Z,15.60
2019-02-27T13:32:26.407Z,15.60
2019-02-27T13:35:06.094Z,15.60
2019-02-27T13:37:48.130Z,15.60
2019-02-27T13:40:34.944Z,15.50
2019-02-27T13:43:14.175Z,15.50
2019-02-27T13:45:55.847Z,15.60
2019-02-27T13:48:39.810Z,15.60
2019-02-27T13:51:21.498Z,15.60
2019-02-27T13:54:03.867Z,15.50
2019-02-27T13:56:45.874Z,15.50
2019-02-27T13:59:27.578Z,15.50
2019-02-27T14:02:11.357Z,15.60
2019-02-27T14:04:53.762Z,15.60
2019-02-27T14:07:36.478Z,15.80
2019-02-27T14:10:20.511Z,15.90
2019-02-27T14:13:01.743Z,16.00
2019-02-27T14:15:43.576Z,16.10
2019-02-27T14:18:25.459Z,16.20
2019-02-27T14:21:07.373Z,16.10
2019-02-27T14:23:49.447Z,16.10
2019-02-27T14:26:31.542Z,16.10
2019-02-27T14:29:14.117Z,16.00
2019-02-27T14:31:56.546Z,16.00
2019-02-27T14:34:38.907Z,16.00
2019-02-27T14:37:20.874Z,16.00
2019-02-27T14:40:04.487Z,16.10
2019-02-27T14:42:46.531Z,16.10
2019-02-27T14:45:28.712Z,16.10
2019-02-27T14:48:10.777Z,15.90
2019-02-27T14:50:52.645Z,15.80
2019-02-27T14:53:34.821Z,15.80
2019-02-27T14:56:16.539Z,15.80
2019-02-27T14:58:58.826Z,16.00
2019-02-27T15:01:41.397Z,16.00
2019-02-27T15:04:23.398Z,15.80
2019-02-27T15:07:05.842Z,15.70
2019-02-27T15:09:48.154Z,15.60
2019-02-27T15:12:29.935Z,15.60
2019-02-27T15:15:12.203Z,15.60
2019-02-27T15:17:54.684Z,15.60
2019-02-27T15:20:40.160Z,15.50
2019-02-27T15:23:20.393Z,15.40
2019-02-27T15:26:02.558Z,15.30
2019-02-27T15:28:44.181Z,15.10
2019-02-27T15:31:26.218Z,15.10
2019-02-27T15:34:06.798Z,15.10
2019-02-27T15:36:56.225Z,15.00
2019-02-27T15:39:39.726Z,15.00
2019-02-27T15:42:21.705Z,14.90
2019-02-27T15:45:09.186Z,14.80
2019-02-27T15:47:47.350Z,14.70
2019-02-27T15:50:29.274Z,14.70
2019-02-27T15:53:14.615Z,14.70
2019-02-27T15:55:55.667Z,14.60
2019-02-27T15:58:37.683Z,14.50
2019-02-27T16:01:19.734Z,14.40
2019-02-27T16:04:01.956Z,14.20
2019-02-27T16:06:43.600Z,14.00
2019-02-27T16:09:25.354Z,13.90
2019-02-27T16:12:07.031Z,13.70
2019-02-27T16:14:48.726Z,13.50
2019-02-27T16:17:31.959Z,13.40
2019-02-27T16:20:16.152Z,13.30
2019-02-27T16:22:58.332Z,13.20
2019-02-27T16:25:40.806Z,13.00
2019-02-27T16:28:22.881Z,12.80
2019-02-27T16:31:06.369Z,12.60
2019-02-27T16:33:49.333Z,12.30
2019-02-27T16:36:36.258Z,12.00
2019-02-27T16:39:16.066Z,11.60
2019-02-27T16:42:01.017Z,11.30
2019-02-27T16:44:41.620Z,11.00
2019-02-27T16:47:23.727Z,10.80
2019-02-27T16:50:06.113Z,10.60
2019-02-27T16:52:47.806Z,10.50
2019-02-27T16:55:29.871Z,10.30
2019-02-27T16:58:12.090Z,10.20
2019-02-27T17:00:55.433Z,10.00
2019-02-27T17:03:35.978Z,9.90
2019-02-27T17:06:19.113Z,9.80
2019-02-27T17:09:00.939Z,9.70
2019-02-27T17:11:43.083Z,9.50
2019-02-27T17:14:24.954Z,9.20
2019-02-27T17:17:06.728Z,9.00
2019-02-27T17:19:48.592Z,8.70
2019-02-27T17:22:33.410Z,8.60
2019-02-27T17:25:14.231Z,8.50
2019-02-27T17:27:56.334Z,8.40
2019-02-27T17:30:38.580Z,8.20
2019-02-27T17:33:20.254Z,8.10
2019-02-27T17:36:02.265Z,8.20
2019-02-27T17:38:45.264Z,8.40
2019-02-27T17:41:28.250Z,8.40
2019-02-27T17:44:10.151Z,8.60
2019-02-27T17:46:54.832Z,8.50
2019-02-27T17:49:35.915Z,8.30
2019-02-27T17:52:17.783Z,8.00
2019-02-27T17:54:59.810Z,7.70
2019-02-27T17:57:42.260Z,7.50
2019-02-27T18:00:31.156Z,7.70
2019-02-27T18:03:22.029Z,7.50
2019-02-27T18:06:05.726Z,7.20
2019-02-27T18:08:51.577Z,6.90
2019-02-27T18:11:32.491Z,6.80
2019-02-27T18:14:14.527Z,6.90
2019-02-27T18:17:03.822Z,6.70
2019-02-27T18:19:54.825Z,6.50
2019-02-27T18:22:38.387Z,6.40
2019-02-27T18:25:20.247Z,6.30
2019-02-27T18:28:02.124Z,6.20
2019-02-27T18:30:44.178Z,6.10
2019-02-27T18:33:25.794Z,6.00
2019-02-27T18:36:07.453Z,5.90
2019-02-27T18:38:49.400Z,5.80
2019-02-27T18:41:31.210Z,5.70
2019-02-27T18:44:12.878Z,5.70
2019-02-27T18:46:56.176Z,5.70
2019-02-27T18:49:44.488Z,5.70
2019-02-27T18:52:26.165Z,5.70
2019-02-27T18:54:56.583Z,5.50
2019-02-27T18:57:47.706Z,5.30
2019-02-27T19:00:33.400Z,5.30
2019-02-27T19:03:15.502Z,5.10
2019-02-27T19:05:45.900Z,4.90
2019-02-27T19:08:36.784Z,4.80
2019-02-27T19:11:22.301Z,4.70
2019-02-27T19:14:05.829Z,4.60
2019-02-27T19:16:48.145Z,4.40
2019-02-27T19:19:29.838Z,4.40
2019-02-27T19:22:11.932Z,4.20
2019-02-27T19:24:53.850Z,4.20
2019-02-27T19:27:37.569Z,4.10
2019-02-27T19:30:19.618Z,4.00
2019-02-27T19:33:02.103Z,4.00
2019-02-27T19:35:32.468Z,3.90
2019-02-27T19:38:23.362Z,3.90
2019-02-27T19:41:06.922Z,3.80
2019-02-27T19:43:55.007Z,3.80
2019-02-27T19:46:33.537Z,3.80
2019-02-27T19:49:15.638Z,3.90
2019-02-27T19:51:57.264Z,3.90
2019-02-27T19:54:39.162Z,3.90
2019-02-27T19:57:21.450Z,3.90
2019-02-27T20:00:03.194Z,3.70
2019-02-27T20:02:45.146Z,3.80
2019-02-27T20:05:27.058Z,3.90
2019-02-27T20:08:10.806Z,4.20
2019-02-27T20:10:52.911Z,4.00
2019-02-27T20:13:33.371Z,3.90
2019-02-27T20:16:03.697Z,3.60
2019-02-27T20:18:54.542Z,3.40
2019-02-27T20:21:31.685Z,3.30
2019-02-27T20:24:14.740Z,3.20
2019-02-27T20:26:57.143Z,3.10
2019-02-27T20:29:40.574Z,3.10
2019-02-27T20:32:28.371Z,3.10
2019-02-27T20:35:07.643Z,3.10
2019-02-27T20:37:49.832Z,3.00
2019-02-27T20:43:21.826Z,3.00
2019-02-27T20:45:54.666Z,2.80
2019-02-27T20:48:48.523Z,2.80
2019-02-27T20:51:30.390Z,2.80
2019-02-27T20:54:12.919Z,2.80
2019-02-27T20:56:56.490Z,2.70
2019-02-27T20:59:38.390Z,2.60
2019-02-27T21:02:09.882Z,2.60
2019-02-27T21:07:53.407Z,2.30
2019-02-27T21:10:38.090Z,2.20
2019-02-27T21:13:20.564Z,2.20
2019-02-27T21:16:03.949Z,2.20
2019-02-27T21:18:46.943Z,2.10
2019-02-27T21:21:29.062Z,2.10
2019-02-27T21:24:11.354Z,2.20
2019-02-27T21:26:54.194Z,2.20
2019-02-27T21:29:36.123Z,2.10
2019-02-27T21:32:20.795Z,2.30
2019-02-27T21:35:03.432Z,2.20
2019-02-27T21:37:45.787Z,2.20
2019-02-27T21:40:27.633Z,2.10
2019-02-27T21:43:09.479Z,1.90
2019-02-27T21:45:51.621Z,1.90
2019-02-27T21:48:33.540Z,1.70
2019-02-27T21:51:15.519Z,1.70
2019-02-27T21:53:56.014Z,1.60
2019-02-27T21:59:46.911Z,1.50
2019-02-27T22:02:30.060Z,1.50
2019-02-27T22:05:18.665Z,1.40
2019-02-27T22:07:56.631Z,1.40
2019-02-27T22:10:39.640Z,1.30
2019-02-27T22:13:29.473Z,1.30
2019-02-27T22:16:05.501Z,1.30
2019-02-27T22:18:47.870Z,1.30
2019-02-27T22:21:34.183Z,1.20
2019-02-27T22:24:20.720Z,1.20
2019-02-27T22:27:00.158Z,1.20
2019-02-27T22:29:42.287Z,1.20
2019-02-27T22:32:25.198Z,1.40
2019-02-27T22:35:07.106Z,1.40
2019-02-27T22:37:52.375Z,1.30
2019-02-27T22:40:33.667Z,1.20
2019-02-27T22:43:15.808Z,1.00
2019-02-27T22:45:56.226Z,0.90
2019-02-27T22:48:45.668Z,0.90
2019-02-27T22:51:29.553Z,0.90
2019-02-27T22:54:11.466Z,0.90
2019-02-27T22:56:53.268Z,1.00
2019-02-27T22:59:37.339Z,1.00
2019-02-27T23:02:21.605Z,0.90
2019-02-27T23:05:04.922Z,0.90
2019-02-27T23:07:48.149Z,0.90
2019-02-27T23:10:30.992Z,0.80
2019-02-27T23:13:21.231Z,0.80
2019-02-27T23:16:04.785Z,0.70
2019-02-27T23:18:46.814Z,0.70
2019-02-27T23:21:28.875Z,0.60
2019-02-27T23:23:59.361Z,0.60
2019-02-27T23:26:54.331Z,0.60
2019-02-27T23:29:40.516Z,0.50
2019-02-27T23:32:10.966Z,0.50
2019-02-27T23:35:01.860Z,0.40
2019-02-27T23:37:32.311Z,0.50
2019-02-27T23:40:23.225Z,0.40
2019-02-27T23:43:06.513Z,0.50
2019-02-27T23:45:48.388Z,0.50
2019-02-27T23:48:30.039Z,0.40
2019-02-27T23:51:15.827Z,0.40
2019-02-27T23:53:55.330Z,0.40
2019-02-27T23:56:37.282Z,0.40
2019-02-27T23:59:19.606Z,0.30
